createdAt,value
2018-11-07T00:01:31.886Z,2.00
2018-11-07T00:04:03.246Z,2.17
2018-11-07T00:06:32.330Z,2.10
2018-11-07T00:09:01.381Z,1.83
2018-11-07T00:11:31.116Z,1.80
2018-11-07T00:14:01.888Z,1.90
2018-11-07T00:16:31.263Z,1.90
2018-11-07T00:19:01.249Z,1.97
2018-11-07T00:21:30.993Z,1.70
2018-11-07T00:24:00.720Z,1.70
2018-11-07T00:26:33.371Z,1.90
2018-11-07T00:29:02.346Z,1.97
2018-11-07T00:31:33.134Z,1.97
2018-11-07T00:34:02.904Z,1.70
2018-11-07T00:36:32.036Z,1.70
2018-11-07T00:39:03.433Z,1.70
2018-11-07T00:41:31.994Z,1.60
2018-11-07T00:44:00.462Z,2.10
2018-11-07T00:46:28.947Z,1.70
2018-11-07T00:48:58.682Z,1.83
2018-11-07T00:51:28.336Z,2.00
2018-11-07T00:53:57.042Z,1.93
2018-11-07T00:56:25.533Z,2.27
2018-11-07T00:58:54.099Z,1.70
2018-11-07T01:01:22.685Z,2.27
2018-11-07T01:03:51.243Z,2.00
2018-11-07T01:06:19.806Z,1.70
2018-11-07T01:08:48.283Z,1.80
2018-11-07T01:11:17.354Z,1.50
2018-11-07T01:13:45.826Z,1.50
2018-11-07T01:16:14.324Z,1.57
2018-11-07T01:18:42.870Z,1.60
2018-11-07T01:21:11.439Z,1.83
2018-11-07T01:23:39.902Z,1.70
2018-11-07T01:26:08.925Z,1.60
2018-11-07T01:28:37.401Z,1.60
2018-11-07T01:31:06.478Z,1.80
2018-11-07T01:33:35.315Z,1.50
2018-11-07T01:36:03.838Z,1.77
2018-11-07T01:38:33.475Z,1.40
2018-11-07T01:41:02.191Z,1.73
2018-11-07T01:43:30.696Z,1.60
2018-11-07T01:45:59.257Z,1.80
2018-11-07T01:48:29.190Z,1.97
2018-11-07T01:50:57.657Z,2.33
2018-11-07T01:53:26.139Z,2.10
2018-11-07T01:55:54.700Z,2.00
2018-11-07T01:58:24.783Z,1.90
2018-11-07T02:00:54.537Z,1.60
2018-11-07T02:03:23.057Z,1.50
2018-11-07T02:05:52.924Z,1.60
2018-11-07T02:08:21.529Z,1.50
2018-11-07T02:10:51.345Z,1.50
2018-11-07T02:13:19.833Z,1.40
2018-11-07T02:15:48.321Z,1.60
2018-11-07T02:18:17.448Z,1.60
2018-11-07T02:20:45.965Z,1.70
2018-11-07T02:23:14.456Z,1.60
2018-11-07T02:25:42.938Z,1.67
2018-11-07T02:28:11.441Z,1.63
2018-11-07T02:30:39.907Z,1.63
2018-11-07T02:33:08.439Z,1.83
2018-11-07T02:35:39.998Z,1.70
2018-11-07T02:38:08.537Z,1.70
2018-11-07T02:40:37.000Z,1.67
2018-11-07T02:43:06.450Z,1.70
2018-11-07T02:45:34.933Z,1.70
2018-11-07T02:48:03.490Z,2.07
2018-11-07T02:50:32.169Z,2.00
2018-11-07T02:53:01.622Z,1.87
2018-11-07T02:55:31.010Z,2.17
2018-11-07T02:57:59.479Z,2.03
2018-11-07T03:00:28.055Z,1.97
2018-11-07T03:02:56.530Z,1.80
2018-11-07T03:05:25.009Z,2.03
2018-11-07T03:07:53.526Z,1.87
2018-11-07T03:10:22.138Z,2.13
2018-11-07T03:12:50.600Z,1.90
2018-11-07T03:15:19.108Z,2.03
2018-11-07T03:17:47.586Z,2.13
2018-11-07T03:20:16.042Z,2.00
2018-11-07T03:22:44.550Z,1.90
2018-11-07T03:25:13.038Z,1.90
2018-11-07T03:27:41.560Z,2.20
2018-11-07T03:30:10.679Z,2.00
2018-11-07T03:32:41.632Z,2.23
2018-11-07T03:35:15.338Z,2.00
2018-11-07T03:37:43.806Z,2.13
2018-11-07T03:40:12.364Z,2.17
2018-11-07T03:42:41.018Z,2.03
2018-11-07T03:45:09.535Z,2.07
2018-11-07T03:47:38.644Z,2.27
2018-11-07T03:50:07.233Z,1.90
2018-11-07T03:52:35.688Z,2.10
2018-11-07T03:55:04.204Z,2.10
2018-11-07T03:57:32.766Z,2.10
2018-11-07T04:00:01.258Z,2.17
2018-11-07T04:02:29.734Z,2.70
2018-11-07T04:04:58.206Z,2.03
2018-11-07T04:07:26.770Z,2.27
2018-11-07T04:09:55.330Z,2.20
2018-11-07T04:12:24.810Z,2.27
2018-11-07T04:14:53.710Z,2.17
2018-11-07T04:17:23.670Z,2.23
2018-11-07T04:19:53.022Z,2.40
2018-11-07T04:22:22.183Z,2.30
2018-11-07T04:24:51.488Z,2.40
2018-11-07T04:27:20.004Z,2.13
2018-11-07T04:29:48.529Z,2.30
2018-11-07T04:32:16.997Z,2.00
2018-11-07T04:34:45.701Z,2.50
2018-11-07T04:37:14.176Z,2.40
2018-11-07T04:39:42.643Z,2.23
2018-11-07T04:42:11.134Z,2.70
2018-11-07T04:44:40.635Z,1.90
2018-11-07T04:47:09.096Z,2.43
2018-11-07T04:49:38.133Z,2.23
2018-11-07T04:52:06.593Z,2.20
2018-11-07T04:54:35.063Z,2.10
2018-11-07T04:57:03.888Z,2.27
2018-11-07T04:59:32.416Z,2.33
2018-11-07T05:02:00.897Z,2.20
2018-11-07T05:04:29.353Z,2.27
2018-11-07T05:06:57.810Z,2.17
2018-11-07T05:09:27.372Z,2.20
2018-11-07T05:11:55.987Z,2.00
2018-11-07T05:14:25.738Z,2.20
2018-11-07T05:16:54.216Z,2.20
2018-11-07T05:19:23.105Z,2.20
2018-11-07T05:21:51.605Z,2.30
2018-11-07T05:24:23.107Z,2.10
2018-11-07T05:26:53.069Z,2.40
2018-11-07T05:29:21.548Z,2.43
2018-11-07T05:31:50.084Z,2.40
2018-11-07T05:34:18.538Z,2.33
2018-11-07T05:36:47.007Z,2.33
2018-11-07T05:39:17.980Z,2.20
2018-11-07T05:41:46.477Z,2.27
2018-11-07T05:44:16.443Z,2.50
2018-11-07T05:46:44.910Z,2.30
2018-11-07T05:49:13.473Z,2.20
2018-11-07T05:51:41.885Z,2.30
2018-11-07T05:54:10.353Z,2.20
2018-11-07T05:56:38.807Z,2.10
2018-11-07T05:59:07.352Z,2.00
2018-11-07T06:01:37.094Z,2.40
2018-11-07T06:04:06.062Z,2.10
2018-11-07T06:06:35.656Z,2.07
2018-11-07T06:09:05.612Z,2.20
2018-11-07T06:11:34.382Z,2.20
2018-11-07T06:14:04.109Z,2.30
2018-11-07T06:16:33.477Z,2.10
2018-11-07T06:19:01.978Z,1.97
2018-11-07T06:21:30.592Z,2.00
2018-11-07T06:23:59.086Z,2.23
2018-11-07T06:26:27.826Z,2.30
2018-11-07T06:28:56.808Z,2.00
2018-11-07T06:31:25.296Z,2.30
2018-11-07T06:33:56.307Z,2.27
2018-11-07T06:36:24.779Z,2.13
2018-11-07T06:38:53.410Z,1.87
2018-11-07T06:41:21.882Z,2.30
2018-11-07T06:43:50.388Z,2.10
2018-11-07T06:46:18.976Z,2.37
2018-11-07T06:48:48.770Z,2.10
2018-11-07T06:51:17.251Z,2.10
2018-11-07T06:53:45.721Z,2.10
2018-11-07T06:56:14.242Z,1.90
2018-11-07T06:58:42.736Z,1.90
2018-11-07T07:01:11.267Z,1.90
2018-11-07T07:03:39.756Z,1.67
2018-11-07T07:06:11.196Z,1.70
2018-11-07T07:08:39.684Z,1.77
2018-11-07T07:11:08.160Z,2.00
2018-11-07T07:13:36.868Z,1.63
2018-11-07T07:16:06.870Z,1.77
2018-11-07T07:18:36.944Z,1.70
2018-11-07T07:21:05.918Z,1.80
2018-11-07T07:23:37.716Z,1.77
2018-11-07T07:26:06.731Z,1.90
2018-11-07T07:28:35.208Z,1.90
2018-11-07T07:31:03.714Z,1.67
2018-11-07T07:33:32.876Z,1.70
2018-11-07T07:36:01.357Z,1.70
2018-11-07T07:38:29.855Z,1.63
2018-11-07T07:40:59.030Z,1.60
2018-11-07T07:43:27.504Z,1.67
2018-11-07T07:45:56.005Z,1.70
2018-11-07T07:48:24.500Z,1.70
2018-11-07T07:50:52.976Z,1.53
2018-11-07T07:53:21.536Z,1.80
2018-11-07T07:55:49.970Z,1.90
2018-11-07T07:58:18.462Z,2.00
2018-11-07T08:00:46.960Z,1.80
2018-11-07T08:03:16.449Z,1.80
2018-11-07T08:05:44.963Z,1.83
2018-11-07T08:08:14.048Z,1.93
2018-11-07T08:10:42.533Z,2.00
2018-11-07T08:13:11.090Z,1.80
2018-11-07T08:15:40.861Z,2.17
2018-11-07T08:18:09.361Z,1.80
2018-11-07T08:20:37.954Z,1.90
2018-11-07T08:23:07.289Z,1.70
2018-11-07T08:25:35.795Z,2.10
2018-11-07T08:28:04.324Z,2.03
2018-11-07T08:30:32.863Z,1.90
2018-11-07T08:33:01.341Z,2.07
2018-11-07T08:35:29.894Z,1.80
2018-11-07T08:37:58.407Z,1.90
2018-11-07T08:40:26.913Z,1.80
2018-11-07T08:42:55.624Z,1.70
2018-11-07T08:45:24.123Z,1.53
2018-11-07T08:47:52.633Z,1.70
2018-11-07T08:50:21.793Z,1.63
2018-11-07T08:52:50.807Z,1.77
2018-11-07T08:55:22.264Z,1.60
2018-11-07T08:57:51.008Z,1.90
2018-11-07T09:00:21.668Z,1.73
2018-11-07T09:02:50.246Z,1.90
2018-11-07T09:05:19.671Z,1.70
2018-11-07T09:07:48.646Z,2.00
2018-11-07T09:10:18.373Z,1.70
2018-11-07T09:12:46.896Z,1.77
2018-11-07T09:15:17.355Z,1.90
2018-11-07T09:17:46.429Z,1.40
2018-11-07T09:20:19.884Z,1.67
2018-11-07T09:22:48.341Z,1.60
2018-11-07T09:25:17.252Z,1.57
2018-11-07T09:27:46.301Z,1.80
2018-11-07T09:30:17.285Z,1.50
2018-11-07T09:32:45.802Z,1.80
2018-11-07T09:35:14.761Z,1.90
2018-11-07T09:37:43.255Z,1.70
2018-11-07T09:40:14.933Z,1.70
2018-11-07T09:42:44.041Z,1.60
2018-11-07T09:45:14.025Z,1.80
2018-11-07T09:47:43.411Z,1.73
2018-11-07T09:50:12.904Z,1.83
2018-11-07T09:52:42.131Z,1.50
2018-11-07T09:55:13.502Z,1.57
2018-11-07T09:57:42.857Z,1.40
2018-11-07T10:00:14.704Z,1.83
2018-11-07T10:02:44.669Z,1.80
2018-11-07T10:05:14.004Z,1.50
2018-11-07T10:07:42.532Z,1.70
2018-11-07T10:10:14.176Z,1.73
2018-11-07T10:12:44.202Z,1.73
2018-11-07T10:15:14.541Z,1.50
2018-11-07T10:17:43.039Z,2.20
2018-11-07T10:20:15.020Z,1.60
2018-11-07T10:22:43.974Z,1.80
2018-11-07T10:25:12.806Z,1.80
2018-11-07T10:27:41.694Z,1.90
2018-11-07T10:30:12.993Z,1.77
2018-11-07T10:32:42.215Z,1.90
2018-11-07T10:35:11.190Z,1.67
2018-11-07T10:37:40.363Z,1.60
2018-11-07T10:40:12.571Z,2.00
2018-11-07T10:42:41.262Z,1.90
2018-11-07T10:45:10.462Z,1.70
2018-11-07T10:47:39.585Z,1.70
2018-11-07T10:50:10.965Z,1.80
2018-11-07T10:52:40.422Z,1.80
2018-11-07T10:55:11.010Z,1.50
2018-11-07T10:57:39.486Z,1.60
2018-11-07T11:00:15.116Z,1.80
2018-11-07T11:03:50.048Z,1.73
2018-11-07T11:06:18.585Z,1.90
2018-11-07T11:08:47.074Z,1.60
2018-11-07T11:11:15.649Z,1.80
2018-11-07T11:13:44.128Z,1.83
2018-11-07T11:16:12.614Z,1.80
2018-11-07T11:18:41.516Z,2.30
2018-11-07T11:21:10.116Z,1.70
2018-11-07T11:23:38.627Z,1.90
2018-11-07T11:26:07.130Z,2.00
2018-11-07T11:28:35.646Z,2.00
2018-11-07T11:31:04.136Z,2.07
2018-11-07T11:33:39.296Z,1.90
2018-11-07T11:36:07.738Z,2.30
2018-11-07T11:38:36.229Z,2.10
2018-11-07T11:41:04.770Z,2.07
2018-11-07T11:43:33.337Z,2.17
2018-11-07T11:46:02.540Z,2.10
2018-11-07T11:48:31.903Z,1.87
2018-11-07T11:51:00.419Z,2.00
2018-11-07T11:53:28.977Z,1.77
2018-11-07T11:55:57.628Z,1.83
2018-11-07T11:58:26.250Z,1.83
2018-11-07T12:00:54.747Z,1.70
2018-11-07T12:03:24.065Z,1.70
2018-11-07T12:05:52.558Z,2.03
2018-11-07T12:08:21.124Z,1.87
2018-11-07T12:10:49.603Z,1.90
2018-11-07T12:13:18.360Z,1.80
2018-11-07T12:15:46.870Z,1.30
2018-11-07T12:18:15.386Z,1.50
2018-11-07T12:20:43.907Z,1.43
2018-11-07T12:23:12.399Z,1.50
2018-11-07T12:25:41.907Z,1.60
2018-11-07T12:28:17.069Z,1.70
2018-11-07T12:30:45.564Z,1.30
2018-11-07T12:33:14.119Z,1.80
2018-11-07T12:35:43.380Z,1.60
2018-11-07T12:38:11.857Z,1.60
2018-11-07T12:40:40.415Z,1.77
2018-11-07T12:43:09.777Z,1.80
2018-11-07T12:45:38.263Z,1.80
2018-11-07T12:48:06.794Z,1.90
2018-11-07T12:50:35.515Z,1.60
2018-11-07T12:53:04.046Z,1.80
2018-11-07T12:55:32.531Z,1.70
2018-11-07T12:58:01.145Z,1.93
2018-11-07T13:00:30.163Z,1.83
2018-11-07T13:02:58.835Z,2.23
2018-11-07T13:05:27.641Z,2.27
2018-11-07T13:07:57.244Z,2.73
2018-11-07T13:10:25.740Z,2.17
2018-11-07T13:12:54.707Z,2.20
2018-11-07T13:15:23.419Z,2.57
2018-11-07T13:17:52.597Z,2.07
2018-11-07T13:20:22.623Z,2.10
2018-11-07T13:22:52.323Z,2.20
2018-11-07T13:25:21.326Z,1.90
2018-11-07T13:27:49.854Z,1.93
2018-11-07T13:30:21.349Z,1.80
2018-11-07T13:32:49.905Z,1.97
2018-11-07T13:35:20.109Z,1.90
2018-11-07T13:37:49.584Z,1.93
2018-11-07T13:40:19.488Z,1.70
2018-11-07T13:42:47.992Z,2.10
2018-11-07T13:45:18.750Z,2.00
2018-11-07T13:47:49.043Z,1.93
2018-11-07T13:50:18.014Z,2.20
2018-11-07T13:52:46.558Z,2.13
2018-11-07T13:55:15.483Z,2.30
2018-11-07T13:57:44.376Z,1.83
2018-11-07T14:00:21.624Z,2.00
2018-11-07T14:02:50.873Z,2.10
2018-11-07T14:05:20.066Z,1.93
2018-11-07T14:07:48.518Z,2.47
2018-11-07T14:10:22.412Z,2.03
2018-11-07T14:12:53.623Z,2.10
2018-11-07T14:15:22.403Z,2.03
2018-11-07T14:17:51.483Z,2.00
2018-11-07T14:20:19.998Z,1.87
2018-11-07T14:22:48.569Z,2.20
2018-11-07T14:25:17.117Z,1.90
2018-11-07T14:27:45.818Z,2.40
2018-11-07T14:30:16.879Z,2.60
2018-11-07T14:32:52.801Z,2.60
2018-11-07T14:35:22.250Z,3.83
2018-11-07T14:37:51.346Z,2.37
2018-11-07T14:40:20.935Z,2.93
2018-11-07T14:42:49.492Z,2.10
2018-11-07T14:45:18.059Z,2.10
2018-11-07T14:47:47.627Z,2.03
2018-11-07T14:50:16.112Z,2.20
2018-11-07T14:52:44.677Z,2.20
2018-11-07T14:55:13.678Z,2.30
2018-11-07T14:57:42.566Z,2.00
2018-11-07T15:00:14.727Z,2.10
2018-11-07T15:02:44.022Z,2.10
2018-11-07T15:05:14.811Z,2.10
2018-11-07T15:07:44.166Z,1.90
2018-11-07T15:10:13.771Z,1.90
2018-11-07T15:12:42.370Z,2.30
2018-11-07T15:15:15.557Z,2.10
2018-11-07T15:17:44.348Z,2.00
2018-11-07T15:20:13.860Z,2.10
2018-11-07T15:22:42.443Z,1.97
2018-11-07T15:25:12.352Z,2.07
2018-11-07T15:27:41.972Z,2.40
2018-11-07T15:30:11.530Z,2.80
2018-11-07T15:32:40.900Z,2.17
2018-11-07T15:35:10.098Z,1.90
2018-11-07T15:37:39.179Z,2.10
2018-11-07T15:40:09.917Z,2.30
2018-11-07T15:42:38.704Z,1.97
2018-11-07T15:45:08.946Z,3.60
2018-11-07T15:47:37.598Z,2.50
2018-11-07T15:50:11.608Z,2.03
2018-11-07T15:52:40.183Z,2.00
2018-11-07T15:55:09.847Z,2.80
2018-11-07T15:57:38.338Z,2.60
2018-11-07T16:00:09.580Z,2.80
2018-11-07T16:02:38.408Z,2.60
2018-11-07T16:05:08.040Z,3.00
2018-11-07T16:07:36.713Z,2.20
2018-11-07T16:10:06.370Z,2.03
2018-11-07T16:12:34.909Z,2.20
2018-11-07T16:15:03.997Z,2.57
2018-11-07T16:17:32.522Z,2.10
2018-11-07T16:20:01.059Z,2.20
2018-11-07T16:22:29.786Z,1.97
2018-11-07T16:24:58.410Z,2.30
2018-11-07T16:27:27.765Z,2.30
2018-11-07T16:29:57.169Z,2.40
2018-11-07T16:32:25.676Z,2.37
2018-11-07T16:34:54.173Z,2.30
2018-11-07T16:37:22.688Z,2.00
2018-11-07T16:39:51.889Z,2.00
2018-11-07T16:42:20.387Z,2.43
2018-11-07T16:44:48.897Z,2.40
2018-11-07T16:47:17.396Z,2.53
2018-11-07T16:49:45.901Z,2.60
2018-11-07T16:52:14.416Z,2.30
2018-11-07T16:54:43.746Z,2.10
2018-11-07T16:57:12.240Z,2.30
2018-11-07T16:59:40.789Z,2.17
2018-11-07T17:02:09.911Z,2.17
2018-11-07T17:04:38.964Z,2.10
2018-11-07T17:07:07.660Z,2.30
2018-11-07T17:09:36.138Z,2.40
2018-11-07T17:12:04.631Z,2.23
2018-11-07T17:14:33.156Z,2.20
2018-11-07T17:17:01.808Z,2.40
2018-11-07T17:19:30.312Z,2.30
2018-11-07T17:21:58.914Z,2.20
2018-11-07T17:24:27.694Z,2.40
2018-11-07T17:26:55.927Z,3.00
2018-11-07T17:29:24.504Z,2.80
2018-11-07T17:31:53.067Z,2.37
2018-11-07T17:34:22.027Z,2.30
2018-11-07T17:36:50.691Z,2.90
2018-11-07T17:39:19.468Z,2.43
2018-11-07T17:41:48.140Z,3.37
2018-11-07T17:44:16.827Z,4.97
2018-11-07T17:46:45.352Z,3.87
2018-11-07T17:49:13.939Z,4.10
2018-11-07T17:51:43.583Z,3.70
2018-11-07T17:54:12.006Z,3.23
2018-11-07T17:56:40.639Z,3.67
2018-11-07T17:59:09.113Z,3.23
2018-11-07T18:01:37.596Z,3.07
2018-11-07T18:04:06.516Z,3.17
2018-11-07T18:06:35.049Z,2.70
2018-11-07T18:09:05.027Z,3.20
2018-11-07T18:11:33.574Z,2.60
2018-11-07T18:14:02.105Z,2.60
2018-11-07T18:16:31.097Z,2.67
2018-11-07T18:19:00.167Z,2.57
2018-11-07T18:21:28.635Z,2.67
2018-11-07T18:23:58.060Z,2.30
2018-11-07T18:26:26.594Z,2.50
2018-11-07T18:28:55.103Z,2.63
2018-11-07T18:31:23.601Z,2.87
2018-11-07T18:33:52.199Z,2.50
2018-11-07T18:36:21.178Z,2.40
2018-11-07T18:38:49.785Z,2.93
2018-11-07T18:41:18.389Z,2.23
2018-11-07T18:43:47.102Z,2.50
2018-11-07T18:46:15.631Z,1.97
2018-11-07T18:48:45.056Z,2.33
2018-11-07T18:51:13.587Z,2.87
2018-11-07T18:53:43.623Z,2.30
2018-11-07T18:56:12.763Z,2.30
2018-11-07T18:58:42.048Z,2.40
2018-11-07T19:01:10.555Z,2.40
2018-11-07T19:03:39.721Z,2.63
2018-11-07T19:06:09.210Z,2.87
2018-11-07T19:08:38.201Z,3.27
2018-11-07T19:11:06.707Z,2.87
2018-11-07T19:13:35.233Z,3.00
2018-11-07T19:16:03.749Z,2.60
2018-11-07T19:18:32.275Z,3.13
2018-11-07T19:21:00.930Z,2.90
2018-11-07T19:23:30.450Z,3.20
2018-11-07T19:25:58.969Z,4.50
2018-11-07T19:28:27.504Z,2.80
2018-11-07T19:30:57.087Z,3.30
2018-11-07T19:33:25.567Z,2.90
2018-11-07T19:35:55.626Z,3.23
2018-11-07T19:38:24.299Z,3.00
2018-11-07T19:40:52.795Z,2.37
2018-11-07T19:43:21.311Z,3.30
2018-11-07T19:45:49.831Z,2.40
2018-11-07T19:48:18.328Z,2.90
2018-11-07T19:50:47.658Z,2.70
2018-11-07T19:53:16.987Z,2.70
2018-11-07T19:55:45.496Z,2.87
2018-11-07T19:58:14.698Z,2.63
2018-11-07T20:00:43.338Z,2.80
2018-11-07T20:03:11.871Z,2.87
2018-11-07T20:05:40.549Z,2.63
2018-11-07T20:08:09.800Z,2.70
2018-11-07T20:10:39.615Z,2.97
2018-11-07T20:13:08.148Z,3.30
2018-11-07T20:15:36.637Z,2.83
2018-11-07T20:18:05.442Z,2.73
2018-11-07T20:20:34.002Z,3.00
2018-11-07T20:23:02.580Z,2.97
2018-11-07T20:25:31.804Z,3.13
2018-11-07T20:28:01.635Z,3.07
2018-11-07T20:30:30.136Z,2.80
2018-11-07T20:32:59.450Z,3.27
2018-11-07T20:35:30.658Z,3.27
2018-11-07T20:38:03.724Z,3.30
2018-11-07T20:40:34.387Z,3.30
2018-11-07T20:43:04.673Z,3.27
2018-11-07T20:45:35.858Z,3.17
2018-11-07T20:48:04.447Z,3.20
2018-11-07T20:50:34.479Z,4.17
2018-11-07T20:53:04.465Z,3.40
2018-11-07T20:55:33.050Z,3.63
2018-11-07T20:58:03.472Z,4.07
2018-11-07T21:00:32.592Z,4.00
2018-11-07T21:03:02.873Z,3.70
2018-11-07T21:05:32.185Z,3.27
2018-11-07T21:08:00.672Z,3.57
2018-11-07T21:10:30.447Z,3.70
2018-11-07T21:13:01.238Z,4.30
2018-11-07T21:15:30.265Z,3.93
2018-11-07T21:17:58.774Z,4.10
2018-11-07T21:20:27.387Z,4.07
2018-11-07T21:22:55.938Z,4.20
2018-11-07T21:25:25.430Z,3.77
2018-11-07T21:27:54.828Z,4.30
2018-11-07T21:30:25.679Z,3.90
2018-11-07T21:32:54.493Z,4.20
2018-11-07T21:35:23.084Z,4.30
2018-11-07T21:37:52.857Z,3.57
2018-11-07T21:40:21.433Z,4.43
2018-11-07T21:42:50.308Z,4.33
2018-11-07T21:45:18.799Z,4.47
2018-11-07T21:47:47.534Z,3.93
2018-11-07T21:50:17.278Z,3.77
2018-11-07T21:52:46.334Z,4.33
2018-11-07T21:55:15.431Z,3.70
2018-11-07T21:57:44.207Z,4.20
2018-11-07T22:00:15.685Z,4.00
2018-11-07T22:02:44.471Z,3.77
2018-11-07T22:05:15.470Z,4.10
2018-11-07T22:07:46.914Z,4.20
2018-11-07T22:10:18.628Z,3.73
2018-11-07T22:12:47.191Z,3.80
2018-11-07T22:15:17.879Z,3.60
2018-11-07T22:17:47.546Z,3.20
2018-11-07T22:20:18.263Z,3.87
2018-11-07T22:22:47.872Z,3.67
2018-11-07T22:25:34.943Z,3.63
2018-11-07T22:28:03.707Z,3.40
2018-11-07T22:30:32.184Z,3.80
2018-11-07T22:33:01.855Z,3.63
2018-11-07T22:35:31.695Z,3.20
2018-11-07T22:38:02.226Z,3.57
2018-11-07T22:40:32.214Z,3.40
2018-11-07T22:43:03.187Z,3.50
2018-11-07T22:45:31.715Z,3.40
2018-11-07T22:48:02.047Z,3.27
2018-11-07T22:50:30.511Z,3.20
2018-11-07T22:53:00.571Z,3.10
2018-11-07T22:55:29.122Z,2.97
2018-11-07T22:57:57.604Z,3.20
2018-11-07T23:00:31.529Z,3.37
2018-11-07T23:03:02.551Z,3.03
2018-11-07T23:05:32.791Z,2.90
2018-11-07T23:08:01.271Z,3.17
2018-11-07T23:10:30.552Z,2.97
2018-11-07T23:13:00.791Z,3.20
2018-11-07T23:15:50.843Z,2.63
2018-11-07T23:18:24.387Z,3.17
2018-11-07T23:20:53.598Z,3.10
2018-11-07T23:23:24.659Z,3.10
2018-11-07T23:25:54.634Z,3.10
2018-11-07T23:28:28.118Z,2.87
2018-11-07T23:30:56.618Z,2.83
2018-11-07T23:33:27.875Z,2.90
2018-11-07T23:35:59.677Z,2.97
2018-11-07T23:38:30.567Z,3.30
2018-11-07T23:41:02.852Z,3.30
2018-11-07T23:43:31.316Z,3.33
2018-11-07T23:46:01.193Z,3.33
2018-11-07T23:48:30.235Z,3.43
2018-11-07T23:50:59.118Z,3.23
2018-11-07T23:53:29.168Z,3.27
2018-11-07T23:55:59.846Z,3.20
2018-11-07T23:58:29.692Z,3.20
